Time;durP1;ratioP1;P1;durP2;ratioP2;P2;SDS_P1;SDS_P2;PMS_P1;PMS_P2;Temp;Humidity;BMP_temperature;BMP_pressure;BME280_temperature;BME280_humidity;BME280_pressure;Samples;Min_cycle;Max_cycle;Signal;HPM_P1;HPM_P2
2024/04/19 00:01:39;;;;;;;4.03;1.98;;;;;;;;;;5597461;25;20033;-57
2024/04/19 00:04:08;;;;;;;4.93;2.03;;;;;;;;;;5574272;25;20032;-57
2024/04/19 00:06:34;;;;;;;4.03;1.90;;;;;;;;;;5563906;25;20471;-57
2024/04/19 00:09:02;;;;;;;3.67;2.03;;;;;;;;;;5579528;25;20044;-57
2024/04/19 00:11:29;;;;;;;5.38;2.05;;;;;;;;;;5600201;25;20366;-56
2024/04/19 00:13:57;;;;;;;5.75;2.42;;;;;;;;;;5599222;25;20032;-57
2024/04/19 00:16:26;;;;;;;4.95;2.55;;;;;;;;;;5600173;25;20028;-57
2024/04/19 00:18:55;;;;;;;5.40;2.15;;;;;;;;;;5593022;25;20473;-57
2024/04/19 00:21:21;;;;;;;3.08;2.33;;;;;;;;;;5571361;25;20025;-57
2024/04/19 00:23:50;;;;;;;6.72;2.38;;;;;;;;;;5561325;25;20513;-56
2024/04/19 00:26:16;;;;;;;5.50;2.58;;;;;;;;;;5562274;25;20025;-58
2024/04/19 00:28:45;;;;;;;4.18;2.30;;;;;;;;;;5561030;25;20039;-56
2024/04/19 00:31:11;;;;;;;6.85;2.47;;;;;;;;;;5575677;25;20348;-58
2024/04/19 00:33:42;;;;;;;3.28;2.10;;;;;;;;;;5580506;25;20044;-57
2024/04/19 00:36:08;;;;;;;4.68;2.10;;;;;;;;;;5566263;25;20373;-57
2024/04/19 00:38:37;;;;;;;3.60;1.95;;;;;;;;;;5572115;25;20032;-57
2024/04/19 00:41:04;;;;;;;4.60;2.05;;;;;;;;;;5580862;25;20028;-57
2024/04/19 00:43:32;;;;;;;5.47;2.40;;;;;;;;;;5596232;25;20028;-57
2024/04/19 00:45:59;;;;;;;3.83;2.07;;;;;;;;;;5601436;25;20477;-57
2024/04/19 00:48:28;;;;;;;4.28;2.08;;;;;;;;;;5603487;25;20028;-58
2024/04/19 00:50:57;;;;;;;6.07;2.17;;;;;;;;;;5589571;25;20037;-57
2024/04/19 00:53:27;;;;;;;4.28;2.47;;;;;;;;;;5577100;25;20366;-57
2024/04/19 00:55:55;;;;;;;4.32;2.13;;;;;;;;;;5585167;25;20024;-57
2024/04/19 00:58:24;;;;;;;3.55;2.05;;;;;;;;;;5573180;25;20029;-57
2024/04/19 01:00:50;;;;;;;5.65;2.60;;;;;;;;;;5564840;25;20049;-57
2024/04/19 01:03:19;;;;;;;7.18;2.35;;;;;;;;;;5567361;25;20485;-56
2024/04/19 01:05:45;;;;;;;3.58;2.33;;;;;;;;;;5573508;25;20470;-57
2024/04/19 01:08:16;;;;;;;4.40;2.30;;;;;;;;;;5583996;25;20038;-58
2024/04/19 01:10:43;;;;;;;7.65;2.50;;;;;;;;;;5581588;25;20358;-57
2024/04/19 01:13:12;;;;;;;5.68;2.88;;;;;;;;;;5582188;25;20028;-57
2024/04/19 01:15:38;;;;;;;6.35;2.45;;;;;;;;;;5580586;25;20025;-57
2024/04/19 01:18:07;;;;;;;4.82;2.17;;;;;;;;;;5579057;25;20032;-57
2024/04/19 01:20:33;;;;;;;5.53;2.47;;;;;;;;;;5594709;25;20028;-57
2024/04/19 01:23:02;;;;;;;4.70;2.22;;;;;;;;;;5565315;25;20020;-57
2024/04/19 01:25:33;;;;;;;6.67;2.77;;;;;;;;;;5564927;25;20503;-57
2024/04/19 01:28:08;;;;;;;4.00;2.60;;;;;;;;;;5572742;25;20469;-57
2024/04/19 01:30:34;;;;;;;6.72;3.17;;;;;;;;;;5564603;25;20495;-57
2024/04/19 01:33:03;;;;;;;7.63;3.22;;;;;;;;;;5564390;25;20031;-57
2024/04/19 01:35:29;;;;;;;7.65;2.90;;;;;;;;;;5564619;25;20040;-57
2024/04/19 01:37:58;;;;;;;5.70;3.33;;;;;;;;;;5564041;25;20024;-58
2024/04/19 01:40:24;;;;;;;7.53;3.75;;;;;;;;;;5582349;25;20473;-58
2024/04/19 01:42:52;;;;;;;7.03;3.50;;;;;;;;;;5579012;25;20035;-57
2024/04/19 01:45:21;;;;;;;6.65;3.35;;;;;;;;;;5578195;25;20028;-58
2024/04/19 01:47:50;;;;;;;6.07;3.23;;;;;;;;;;5572225;25;20025;-57
2024/04/19 01:50:16;;;;;;;6.65;3.45;;;;;;;;;;5583698;25;20025;-58
2024/04/19 01:52:46;;;;;;;8.30;3.90;;;;;;;;;;5584308;25;20032;-57
2024/04/19 01:55:12;;;;;;;5.60;3.75;;;;;;;;;;5601344;25;20027;-57
2024/04/19 01:57:41;;;;;;;6.60;4.28;;;;;;;;;;5600990;25;20386;-56
2024/04/19 02:00:07;;;;;;;6.07;4.43;;;;;;;;;;5590673;25;20027;-57
2024/04/19 02:02:39;;;;;;;6.97;3.95;;;;;;;;;;5571109;25;20486;-57
2024/04/19 02:05:05;;;;;;;10.25;4.43;;;;;;;;;;5591655;25;20024;-57
2024/04/19 02:07:34;;;;;;;7.13;4.70;;;;;;;;;;5601289;25;20502;-57
2024/04/19 02:10:01;;;;;;;;;;;;;;;;;;5588183;25;20067;-57
2024/04/19 02:12:30;;;;;;;9.93;5.50;;;;;;;;;;5593725;25;19934;-58
2024/04/19 02:14:56;;;;;;;11.20;6.22;;;;;;;;;;5596789;25;20028;-58
2024/04/19 02:17:24;;;;;;;9.05;5.20;;;;;;;;;;5588165;25;20026;-58
2024/04/19 02:19:53;;;;;;;8.27;5.38;;;;;;;;;;5584518;25;20489;-58
2024/04/19 02:22:22;;;;;;;7.30;4.90;;;;;;;;;;5570184;25;20029;-59
2024/04/19 02:24:48;;;;;;;9.27;4.97;;;;;;;;;;5572726;25;20032;-58
2024/04/19 02:30:52;;;;;;;7.05;4.75;;;;;;;;;;5585324;25;20028;-58
2024/04/19 02:32:54;;;;;;;9.52;5.43;;;;;;;;;;5567440;25;20213;-57
2024/04/19 02:35:25;;;;;;;10.00;5.68;;;;;;;;;;5563551;25;20028;-57
2024/04/19 02:37:55;;;;;;;12.32;5.85;;;;;;;;;;5563974;25;20028;-57
2024/04/19 02:40:42;;;;;;;12.02;7.72;;;;;;;;;;5570825;25;20044;-57
2024/04/19 02:48:40;;;;;;;10.20;6.85;;;;;;;;;;5567037;25;20037;-58
2024/04/19 02:56:41;;;;;;;10.10;7.20;;;;;;;;;;5567397;25;20036;-58
2024/04/19 03:05:18;;;;;;;13.38;8.27;;;;;;;;;;5566969;25;20032;-57
2024/04/19 03:07:49;;;;;;;12.70;9.20;;;;;;;;;;5563260;25;20060;-57
2024/04/19 03:18:51;;;;;;;14.20;10.57;;;;;;;;;;5598969;25;20039;-58
2024/04/19 03:29:55;;;;;;;18.38;13.07;;;;;;;;;;5568935;25;20378;-59
2024/04/19 03:32:42;;;;;;;19.13;13.63;;;;;;;;;;5596050;25;20027;-60
2024/04/19 03:35:11;;;;;;;15.50;12.18;;;;;;;;;;5596840;25;20044;-59
2024/04/19 03:37:40;;;;;;;18.30;13.30;;;;;;;;;;5596941;25;20039;-59
2024/04/19 03:40:27;;;;;;;16.15;12.50;;;;;;;;;;5583857;25;20590;-59
2024/04/19 03:43:14;;;;;;;15.80;12.52;;;;;;;;;;5572963;25;20032;-59
2024/04/19 03:48:31;;;;;;;16.52;12.88;;;;;;;;;;5584103;25;20037;-59
2024/04/19 03:50:59;;;;;;;23.33;14.43;;;;;;;;;;5599326;25;20028;-59
2024/04/19 03:53:46;;;;;;;19.33;14.10;;;;;;;;;;5593696;25;20024;-58
2024/04/19 04:04:51;;;;;;;19.58;11.75;;;;;;;;;;5603626;25;20397;-59
2024/04/19 04:13:26;;;;;;;14.15;10.38;;;;;;;;;;5568446;25;20017;-59
2024/04/19 04:27:34;;;;;;;15.90;10.55;;;;;;;;;;5569184;25;20478;-59
2024/04/19 04:33:06;;;;;;;15.18;10.75;;;;;;;;;;5569191;25;20041;-60
2024/04/19 04:41:43;;;;;;;12.75;8.57;;;;;;;;;;5568774;25;20032;-59
2024/04/19 04:53:05;;;;;;;11.75;7.72;;;;;;;;;;5604326;25;20092;-62
2024/04/19 04:58:56;;;;;;;10.00;6.40;;;;;;;;;;5581025;25;20506;-61
2024/04/19 05:01:25;;;;;;;11.15;7.03;;;;;;;;;;5602828;25;20028;-61
2024/04/19 05:03:57;;;;;;;7.25;5.05;;;;;;;;;;5602714;25;20520;-62
2024/04/19 05:06:44;;;;;;;9.20;5.50;;;;;;;;;;5601420;25;20032;-62
2024/04/19 05:09:12;;;;;;;6.07;4.47;;;;;;;;;;5570531;25;20036;-62
2024/04/19 05:15:04;;;;;;;6.20;3.90;;;;;;;;;;5586884;25;20032;-61
2024/04/19 05:20:51;;;;;;;5.97;4.30;;;;;;;;;;5440443;25;20036;-62
2024/04/19 05:23:19;;;;;;;6.70;4.03;;;;;;;;;;5564743;25;20036;-61
2024/04/19 05:25:50;;;;;;;4.82;3.80;;;;;;;;;;5572509;25;20028;-61
2024/04/19 05:28:19;;;;;;;5.35;3.42;;;;;;;;;;5582278;25;20031;-62
2024/04/19 05:30:48;;;;;;;6.05;4.10;;;;;;;;;;5580201;25;20027;-65
2024/04/19 05:33:17;;;;;;;5.18;3.60;;;;;;;;;;5587354;25;20020;-65
2024/04/19 05:35:45;;;;;;;3.85;2.90;;;;;;;;;;5574991;25;20024;-65
2024/04/19 05:38:17;;;;;;;4.32;2.83;;;;;;;;;;5574777;25;20028;-65
2024/04/19 05:40:45;;;;;;;4.18;2.90;;;;;;;;;;5591570;25;20498;-65
2024/04/19 05:43:14;;;;;;;3.30;2.60;;;;;;;;;;5572281;25;20020;-66
2024/04/19 05:45:43;;;;;;;3.60;2.50;;;;;;;;;;5582524;25;20020;-65
2024/04/19 05:48:13;;;;;;;5.63;2.63;;;;;;;;;;5565905;25;20020;-65
2024/04/19 05:50:42;;;;;;;4.00;3.00;;;;;;;;;;5568562;25;20419;-65
2024/04/19 05:53:10;;;;;;;4.68;2.38;;;;;;;;;;5571851;25;20020;-65
2024/04/19 05:55:42;;;;;;;4.22;3.40;;;;;;;;;;5563615;25;20028;-65
2024/04/19 05:58:10;;;;;;;3.17;2.50;;;;;;;;;;5575201;25;20040;-65
2024/04/19 06:00:39;;;;;;;3.72;2.70;;;;;;;;;;5573095;25;20033;-65
2024/04/19 06:03:08;;;;;;;5.03;3.42;;;;;;;;;;5587489;25;20441;-65
2024/04/19 06:05:37;;;;;;;3.80;3.28;;;;;;;;;;5584581;25;20029;-65
2024/04/19 06:08:07;;;;;;;3.20;2.80;;;;;;;;;;5595941;25;20028;-66
2024/04/19 06:10:36;;;;;;;3.78;3.35;;;;;;;;;;5583502;25;20044;-65
2024/04/19 06:13:07;;;;;;;4.17;3.07;;;;;;;;;;5579227;25;20041;-65
2024/04/19 06:15:36;;;;;;;3.83;3.00;;;;;;;;;;5567129;25;20028;-65
2024/04/19 06:18:05;;;;;;;4.15;3.75;;;;;;;;;;5574467;25;20093;-66
2024/04/19 06:20:36;;;;;;;3.17;2.83;;;;;;;;;;5578493;25;20052;-65
2024/04/19 06:23:05;;;;;;;4.90;3.90;;;;;;;;;;5589770;25;20120;-65
2024/04/19 06:25:35;;;;;;;3.92;2.75;;;;;;;;;;5579285;25;20482;-65
2024/04/19 06:28:04;;;;;;;4.38;3.13;;;;;;;;;;5574458;25;20039;-66
2024/04/19 06:30:35;;;;;;;4.00;3.28;;;;;;;;;;5582874;25;20375;-65
2024/04/19 06:33:04;;;;;;;4.43;3.60;;;;;;;;;;5563572;25;20529;-65
2024/04/19 06:35:35;;;;;;;5.85;4.60;;;;;;;;;;5562993;25;20394;-65
2024/04/19 06:38:04;;;;;;;4.07;3.63;;;;;;;;;;5570568;25;20028;-65
2024/04/19 06:40:33;;;;;;;5.43;3.67;;;;;;;;;;5563461;25;20029;-65
2024/04/19 06:43:01;;;;;;;3.65;3.03;;;;;;;;;;5562710;25;20024;-66
2024/04/19 06:45:33;;;;;;;3.97;3.00;;;;;;;;;;5563367;25;20032;-65
2024/04/19 06:48:05;;;;;;;3.00;2.70;;;;;;;;;;5568135;25;20365;-65
2024/04/19 06:50:33;;;;;;;3.20;2.90;;;;;;;;;;5576189;25;20036;-65
2024/04/19 06:53:02;;;;;;;3.65;2.95;;;;;;;;;;5573885;25;20032;-67
2024/04/19 06:55:31;;;;;;;3.85;3.35;;;;;;;;;;5577579;25;20032;-67
2024/04/19 06:58:00;;;;;;;4.05;3.17;;;;;;;;;;5577432;25;20024;-68
2024/04/19 07:00:29;;;;;;;4.50;3.78;;;;;;;;;;5581132;25;20494;-67
2024/04/19 07:02:58;;;;;;;3.95;3.17;;;;;;;;;;5592275;25;20051;-67
2024/04/19 07:05:29;;;;;;;2.40;2.20;;;;;;;;;;5596782;25;20029;-67
2024/04/19 07:07:58;;;;;;;6.53;4.00;;;;;;;;;;5574286;25;20029;-67
2024/04/19 07:10:27;;;;;;;6.97;4.97;;;;;;;;;;5579439;25;20028;-67
2024/04/19 07:12:56;;;;;;;5.57;3.97;;;;;;;;;;5571720;25;20044;-67
2024/04/19 07:15:24;;;;;;;8.40;5.38;;;;;;;;;;5579212;25;20024;-67
2024/04/19 07:17:53;;;;;;;6.38;4.40;;;;;;;;;;5591022;25;20023;-67
2024/04/19 07:20:22;;;;;;;7.13;5.05;;;;;;;;;;5596024;25;20020;-67
2024/04/19 07:22:54;;;;;;;4.80;4.03;;;;;;;;;;5576629;25;20065;-67
2024/04/19 07:25:22;;;;;;;4.10;2.78;;;;;;;;;;5567329;25;20037;-67
2024/04/19 07:27:51;;;;;;;3.70;2.85;;;;;;;;;;5594877;25;20024;-68
2024/04/19 07:30:20;;;;;;;4.60;3.33;;;;;;;;;;5578145;25;20020;-68
2024/04/19 07:32:49;;;;;;;6.43;2.73;;;;;;;;;;5587522;25;20031;-67
2024/04/19 07:35:18;;;;;;;3.80;2.40;;;;;;;;;;5574980;25;20027;-68
2024/04/19 07:37:47;;;;;;;3.35;2.70;;;;;;;;;;5579193;25;20024;-67
2024/04/19 07:40:18;;;;;;;4.00;3.00;;;;;;;;;;5579039;25;20485;-68
2024/04/19 07:42:47;;;;;;;5.15;3.58;;;;;;;;;;5570092;25;20029;-68
2024/04/19 07:45:22;;;;;;;7.80;4.53;;;;;;;;;;5570614;25;20386;-68
2024/04/19 07:47:51;;;;;;;14.55;4.00;;;;;;;;;;5590533;25;20063;-68
2024/04/19 07:50:20;;;;;;;4.75;3.28;;;;;;;;;;5591770;25;20473;-70
2024/04/19 07:52:49;;;;;;;8.73;4.10;;;;;;;;;;5576060;25;20028;-68
2024/04/19 07:55:20;;;;;;;7.57;4.43;;;;;;;;;;5574649;25;20388;-69
2024/04/19 07:57:49;;;;;;;6.20;4.60;;;;;;;;;;5580243;25;20040;-71
2024/04/19 08:00:21;;;;;;;10.73;4.83;;;;;;;;;;5577319;25;20031;-71
2024/04/19 08:02:50;;;;;;;8.40;4.32;;;;;;;;;;5577686;25;20103;-70
2024/04/19 08:05:20;;;;;;;13.23;4.65;;;;;;;;;;5571878;25;20363;-71
2024/04/19 08:07:49;;;;;;;7.25;4.55;;;;;;;;;;5582626;25;20071;-71
2024/04/19 08:10:20;;;;;;;6.40;3.90;;;;;;;;;;5587407;25;20028;-71
2024/04/19 08:12:52;;;;;;;5.40;4.10;;;;;;;;;;5566823;25;20004;-71
2024/04/19 08:15:20;;;;;;;9.80;5.15;;;;;;;;;;5568833;25;20019;-71
2024/04/19 08:17:50;;;;;;;9.77;5.57;;;;;;;;;;5578429;25;20051;-72
2024/04/19 08:20:19;;;;;;;6.75;5.25;;;;;;;;;;5613082;25;20032;-71
2024/04/19 08:22:48;;;;;;;10.90;5.30;;;;;;;;;;5592278;25;20032;-71
2024/04/19 08:25:17;;;;;;;10.13;5.80;;;;;;;;;;5571879;25;20378;-71
2024/04/19 08:27:46;;;;;;;12.25;7.20;;;;;;;;;;5573299;25;20400;-71
2024/04/19 08:30:18;;;;;;;13.52;7.45;;;;;;;;;;5575839;25;20033;-71
2024/04/19 08:32:47;;;;;;;15.15;7.18;;;;;;;;;;5583762;25;20024;-71
2024/04/19 08:35:16;;;;;;;11.68;6.03;;;;;;;;;;5586225;25;20027;-71
2024/04/19 08:37:44;;;;;;;8.75;5.80;;;;;;;;;;5595556;25;20019;-71
2024/04/19 08:40:14;;;;;;;15.50;7.25;;;;;;;;;;5583109;25;20035;-70
2024/04/19 08:42:43;;;;;;;12.48;6.90;;;;;;;;;;5569639;25;20023;-71
2024/04/19 08:45:13;;;;;;;14.00;7.53;;;;;;;;;;5573380;25;20037;-70
2024/04/19 08:47:45;;;;;;;14.80;8.15;;;;;;;;;;5583204;25;20335;-70
2024/04/19 08:50:14;;;;;;;17.00;9.52;;;;;;;;;;5575599;25;20039;-70
2024/04/19 08:52:44;;;;;;;22.83;10.23;;;;;;;;;;5586045;25;20608;-70
2024/04/19 08:55:14;;;;;;;16.10;9.48;;;;;;;;;;5579444;25;20025;-70
2024/04/19 08:57:44;;;;;;;33.45;13.10;;;;;;;;;;5589916;25;20025;-69
2024/04/19 09:00:14;;;;;;;25.45;12.73;;;;;;;;;;5577696;25;20035;-70
2024/04/19 09:02:45;;;;;;;16.63;9.43;;;;;;;;;;5579553;25;20036;-69
2024/04/19 09:05:14;;;;;;;24.23;11.52;;;;;;;;;;5567818;25;20033;-70
2024/04/19 09:07:42;;;;;;;38.65;13.85;;;;;;;;;;5564159;25;20033;-69
2024/04/19 09:10:12;;;;;;;22.60;11.30;;;;;;;;;;5552227;25;20033;-69
2024/04/19 09:12:42;;;;;;;23.05;11.85;;;;;;;;;;5557738;25;20403;-69
2024/04/19 09:15:10;;;;;;;32.08;14.60;;;;;;;;;;5544676;25;20029;-69
2024/04/19 09:17:39;;;;;;;17.38;10.73;;;;;;;;;;5553606;25;20020;-69
2024/04/19 09:20:11;;;;;;;31.42;14.50;;;;;;;;;;5559672;25;20384;-69
2024/04/19 09:22:40;;;;;;;28.13;14.60;;;;;;;;;;5563720;25;20029;-69
2024/04/19 09:25:09;;;;;;;31.45;15.05;;;;;;;;;;5558117;25;20024;-69
2024/04/19 09:27:39;;;;;;;31.63;15.90;;;;;;;;;;5566935;25;20044;-69
2024/04/19 09:30:09;;;;;;;32.30;16.08;;;;;;;;;;5553203;25;20362;-69
2024/04/19 09:32:38;;;;;;;;;;;;;;;;;;5556788;25;20036;-69
2024/04/19 09:35:07;;;;;;;25.05;15.15;;;;;;;;;;5548278;25;19955;-69
2024/04/19 09:37:42;;;;;;;28.23;17.33;;;;;;;;;;5560909;25;20021;-69
2024/04/19 09:40:11;;;;;;;24.52;14.73;;;;;;;;;;5541986;25;20024;-69
2024/04/19 09:42:41;;;;;;;19.00;12.82;;;;;;;;;;5573105;25;20029;-69
2024/04/19 09:45:12;;;;;;;22.73;11.85;;;;;;;;;;5570931;25;20395;-70
2024/04/19 09:47:41;;;;;;;9.75;7.63;;;;;;;;;;5534563;25;20029;-69
2024/04/19 09:50:13;;;;;;;12.43;7.80;;;;;;;;;;5555345;25;20040;-69
2024/04/19 09:52:47;;;;;;;12.80;7.45;;;;;;;;;;5560873;25;20032;-69
2024/04/19 09:55:19;;;;;;;13.43;7.95;;;;;;;;;;5528525;25;20037;-69
2024/04/19 09:57:48;;;;;;;9.35;6.15;;;;;;;;;;5561015;25;20101;-69
2024/04/19 10:00:17;;;;;;;12.03;7.03;;;;;;;;;;5545921;25;20025;-69
2024/04/19 10:02:43;;;;;;;8.87;6.47;;;;;;;;;;5550455;25;20025;-69
2024/04/19 10:05:13;;;;;;;8.20;5.30;;;;;;;;;;5576698;25;20405;-69
2024/04/19 10:07:43;;;;;;;8.70;6.05;;;;;;;;;;5576644;25;20377;-70
2024/04/19 10:10:15;;;;;;;8.40;5.03;;;;;;;;;;5573298;25;20028;-70
2024/04/19 10:12:45;;;;;;;13.65;7.03;;;;;;;;;;5599034;25;20720;-69
2024/04/19 10:15:13;;;;;;;7.00;4.03;;;;;;;;;;5572351;25;20490;-70
2024/04/19 10:17:42;;;;;;;6.70;4.20;;;;;;;;;;5591149;25;20024;-69
2024/04/19 10:20:11;;;;;;;6.65;3.50;;;;;;;;;;5590131;25;20035;-69
2024/04/19 10:22:42;;;;;;;7.05;4.70;;;;;;;;;;5585000;25;20502;-70
2024/04/19 10:25:12;;;;;;;6.63;4.30;;;;;;;;;;5592753;25;20031;-69
2024/04/19 10:27:48;;;;;;;4.72;2.83;;;;;;;;;;5597422;25;20020;-69
2024/04/19 10:30:16;;;;;;;6.70;3.83;;;;;;;;;;5594901;25;20024;-69
2024/04/19 10:32:45;;;;;;;8.60;4.22;;;;;;;;;;5591306;25;20020;-69
2024/04/19 10:35:14;;;;;;;7.28;3.97;;;;;;;;;;5594528;25;20032;-68
2024/04/19 10:37:43;;;;;;;6.30;3.60;;;;;;;;;;5583955;25;20039;-69
2024/04/19 10:40:14;;;;;;;5.80;3.00;;;;;;;;;;5592474;25;20032;-69
2024/04/19 10:42:46;;;;;;;8.00;4.68;;;;;;;;;;5592946;25;20028;-69
2024/04/19 10:45:15;;;;;;;6.80;4.15;;;;;;;;;;5570615;25;20481;-69
2024/04/19 10:47:45;;;;;;;7.90;3.67;;;;;;;;;;5589514;25;20024;-69
2024/04/19 10:50:14;;;;;;;9.30;4.00;;;;;;;;;;5583873;25;20019;-69
2024/04/19 10:52:43;;;;;;;6.23;3.40;;;;;;;;;;5581773;25;19996;-69
2024/04/19 10:55:12;;;;;;;5.88;3.42;;;;;;;;;;5601266;25;20027;-68
2024/04/19 10:57:40;;;;;;;8.65;4.32;;;;;;;;;;5603921;25;20027;-69
2024/04/19 11:00:12;;;;;;;4.72;3.30;;;;;;;;;;5585609;25;20346;-69
2024/04/19 11:02:42;;;;;;;6.05;3.75;;;;;;;;;;5589101;25;20064;-68
2024/04/19 11:05:11;;;;;;;5.65;3.92;;;;;;;;;;5595727;25;20036;-68
2024/04/19 11:07:40;;;;;;;6.20;4.25;;;;;;;;;;5584756;25;20028;-68
2024/04/19 11:10:10;;;;;;;7.72;5.03;;;;;;;;;;5588074;25;20979;-68
2024/04/19 11:12:42;;;;;;;9.98;5.95;;;;;;;;;;5579730;25;20036;-67
2024/04/19 11:15:14;;;;;;;6.68;4.93;;;;;;;;;;5593671;25;20096;-68
2024/04/19 11:17:43;;;;;;;5.47;3.67;;;;;;;;;;5589076;25;20394;-68
2024/04/19 11:20:11;;;;;;;5.32;3.97;;;;;;;;;;5595977;25;20063;-68
2024/04/19 11:22:40;;;;;;;10.43;4.90;;;;;;;;;;5596480;25;20038;-68
2024/04/19 11:25:09;;;;;;;4.80;3.10;;;;;;;;;;5594711;25;20028;-68
2024/04/19 11:27:38;;;;;;;4.43;2.60;;;;;;;;;;5578403;25;20028;-68
2024/04/19 11:30:08;;;;;;;3.20;2.20;;;;;;;;;;5585441;25;20024;-68
2024/04/19 11:32:40;;;;;;;4.60;2.75;;;;;;;;;;5592528;25;20028;-68
2024/04/19 11:35:10;;;;;;;4.07;2.20;;;;;;;;;;5594368;25;20493;-68
2024/04/19 11:37:39;;;;;;;6.10;2.63;;;;;;;;;;5577917;25;20023;-68
2024/04/19 11:40:19;;;;;;;4.72;1.83;;;;;;;;;;5586475;25;20473;-68
2024/04/19 11:42:50;;;;;;;3.97;1.92;;;;;;;;;;5576991;25;20028;-68
2024/04/19 11:45:20;;;;;;;5.43;1.50;;;;;;;;;;5565761;25;20371;-68
2024/04/19 11:47:52;;;;;;;4.38;1.40;;;;;;;;;;5596487;25;20024;-68
2024/04/19 11:50:22;;;;;;;3.00;1.90;;;;;;;;;;5590582;25;20839;-68
2024/04/19 11:52:51;;;;;;;3.05;1.60;;;;;;;;;;5591268;25;20040;-68
2024/04/19 11:55:20;;;;;;;2.53;1.70;;;;;;;;;;5596700;25;20032;-68
2024/04/19 11:57:48;;;;;;;2.30;1.53;;;;;;;;;;5587732;25;20339;-67
2024/04/19 12:00:19;;;;;;;4.80;1.53;;;;;;;;;;5586995;25;20024;-68
2024/04/19 12:02:49;;;;;;;2.75;1.10;;;;;;;;;;5588588;25;20032;-67
2024/04/19 12:05:20;;;;;;;2.47;1.40;;;;;;;;;;5590438;25;20037;-68
2024/04/19 12:07:49;;;;;;;2.13;0.90;;;;;;;;;;5584065;25;20490;-68
2024/04/19 12:10:18;;;;;;;1.50;0.80;;;;;;;;;;5587501;25;20047;-68
2024/04/19 12:12:47;;;;;;;2.30;1.17;;;;;;;;;;5583451;25;20028;-68
2024/04/19 12:15:16;;;;;;;1.88;0.88;;;;;;;;;;5586160;25;20012;-68
2024/04/19 12:17:44;;;;;;;2.15;1.00;;;;;;;;;;5586738;25;20092;-67
2024/04/19 12:26:23;;;;;;;2.58;1.20;;;;;;;;;;5577726;25;20014;-68
2024/04/19 12:28:51;;;;;;;1.92;1.00;;;;;;;;;;5573443;25;20032;-68
2024/04/19 12:31:22;;;;;;;4.00;1.88;;;;;;;;;;5587365;25;20047;-68
2024/04/19 12:33:51;;;;;;;1.67;1.10;;;;;;;;;;5592887;25;20032;-68
2024/04/19 12:36:20;;;;;;;2.80;1.30;;;;;;;;;;5593623;25;20477;-68
2024/04/19 12:38:48;;;;;;;3.33;1.10;;;;;;;;;;5584369;25;20036;-68
2024/04/19 12:41:17;;;;;;;2.63;1.30;;;;;;;;;;5593557;25;20036;-68
2024/04/19 12:43:49;;;;;;;3.97;1.20;;;;;;;;;;5595228;25;20033;-68
2024/04/19 12:46:18;;;;;;;2.08;1.20;;;;;;;;;;5583993;25;20379;-68
2024/04/19 12:48:47;;;;;;;2.70;1.10;;;;;;;;;;5585183;25;20028;-68
2024/04/19 12:51:23;;;;;;;;;;;;;;;;;;5581570;25;20020;-68
2024/04/19 12:53:51;;;;;;;2.88;1.10;;;;;;;;;;5576838;25;19958;-68
2024/04/19 12:56:20;;;;;;;2.40;0.97;;;;;;;;;;5592783;25;20358;-68
2024/04/19 12:58:52;;;;;;;1.73;0.93;;;;;;;;;;5596052;25;20035;-68
2024/04/19 13:01:21;;;;;;;2.15;0.80;;;;;;;;;;5595600;25;20028;-68
2024/04/19 13:03:50;;;;;;;2.90;1.07;;;;;;;;;;5590931;25;20498;-68
2024/04/19 13:06:18;;;;;;;2.30;0.80;;;;;;;;;;5597553;25;20044;-68
2024/04/19 13:08:47;;;;;;;1.25;0.68;;;;;;;;;;5583998;25;20028;-68
2024/04/19 13:11:16;;;;;;;1.17;0.40;;;;;;;;;;5569782;25;20064;-68
2024/04/19 13:13:56;;;;;;;1.35;0.60;;;;;;;;;;5582401;25;20033;-67
2024/04/19 13:16:25;;;;;;;0.80;0.50;;;;;;;;;;5576057;25;20024;-67
2024/04/19 13:18:54;;;;;;;2.53;0.70;;;;;;;;;;5598301;25;20028;-66
2024/04/19 13:21:26;;;;;;;1.00;0.50;;;;;;;;;;5582021;25;20032;-67
2024/04/19 13:23:55;;;;;;;1.77;0.50;;;;;;;;;;5596886;25;20892;-68
2024/04/19 13:26:24;;;;;;;0.93;0.50;;;;;;;;;;5581190;25;20024;-68
2024/04/19 13:28:56;;;;;;;2.25;0.93;;;;;;;;;;5592908;25;20028;-68
2024/04/19 13:31:25;;;;;;;1.38;0.57;;;;;;;;;;5587411;25;20045;-68
2024/04/19 13:33:54;;;;;;;2.72;0.52;;;;;;;;;;5586787;25;20501;-67
2024/04/19 13:36:22;;;;;;;1.92;0.50;;;;;;;;;;5604405;25;20032;-68
2024/04/19 13:38:51;;;;;;;1.55;0.50;;;;;;;;;;5590350;25;20481;-67
2024/04/19 13:41:20;;;;;;;4.17;0.80;;;;;;;;;;5587701;25;20480;-67
2024/04/19 13:43:49;;;;;;;3.17;0.75;;;;;;;;;;5574661;25;20482;-68
2024/04/19 13:46:20;;;;;;;1.20;0.60;;;;;;;;;;5575108;25;20035;-68
2024/04/19 13:48:50;;;;;;;0.98;0.60;;;;;;;;;;5601407;25;20028;-67
2024/04/19 13:51:19;;;;;;;2.65;0.60;;;;;;;;;;5601836;25;20024;-68
2024/04/19 13:53:49;;;;;;;1.60;0.60;;;;;;;;;;5600468;25;20020;-67
2024/04/19 13:56:18;;;;;;;1.65;0.68;;;;;;;;;;5599722;25;20020;-67
2024/04/19 13:58:46;;;;;;;1.30;0.70;;;;;;;;;;5581732;25;20036;-66
2024/04/19 14:01:15;;;;;;;1.43;0.60;;;;;;;;;;5591772;25;20376;-65
2024/04/19 14:03:52;;;;;;;2.07;0.70;;;;;;;;;;5601189;25;20402;-66
2024/04/19 14:06:21;;;;;;;1.38;0.60;;;;;;;;;;5569326;25;20363;-65
2024/04/19 14:08:52;;;;;;;1.65;0.52;;;;;;;;;;5568319;25;20355;-59
2024/04/19 14:11:22;;;;;;;1.75;0.68;;;;;;;;;;5609149;25;20027;-68
2024/04/19 14:13:51;;;;;;;1.80;0.82;;;;;;;;;;5589982;25;20493;-65
2024/04/19 14:16:23;;;;;;;2.17;0.70;;;;;;;;;;5580658;25;20033;-65
2024/04/19 14:18:54;;;;;;;1.50;0.68;;;;;;;;;;5576118;25;20029;-65
2024/04/19 14:21:23;;;;;;;1.67;0.80;;;;;;;;;;5581160;25;20340;-65
2024/04/19 14:23:52;;;;;;;2.78;1.02;;;;;;;;;;5563318;25;20024;-65
2024/04/19 14:26:21;;;;;;;2.50;1.70;;;;;;;;;;5581389;25;20371;-66
2024/04/19 14:28:50;;;;;;;1.40;0.70;;;;;;;;;;5595853;25;20375;-66
2024/04/19 14:31:19;;;;;;;1.10;0.50;;;;;;;;;;5591877;25;20025;-66
2024/04/19 14:33:48;;;;;;;2.55;1.00;;;;;;;;;;5593008;25;20399;-66
2024/04/19 14:36:19;;;;;;;2.22;0.90;;;;;;;;;;5578858;25;20028;-66
2024/04/19 14:38:48;;;;;;;2.10;0.80;;;;;;;;;;5596908;25;20031;-66
2024/04/19 14:41:17;;;;;;;2.27;0.97;;;;;;;;;;5595716;25;20024;-66
2024/04/19 14:43:45;;;;;;;4.32;1.13;;;;;;;;;;5589801;25;20032;-67
2024/04/19 14:46:15;;;;;;;2.85;0.90;;;;;;;;;;5600886;25;20024;-67
2024/04/19 14:48:44;;;;;;;1.77;0.80;;;;;;;;;;5601212;25;20024;-67
2024/04/19 14:51:17;;;;;;;3.15;0.95;;;;;;;;;;5595536;25;20035;-67
2024/04/19 14:53:50;;;;;;;2.75;0.95;;;;;;;;;;5580830;25;20839;-67
2024/04/19 14:56:20;;;;;;;3.35;1.08;;;;;;;;;;5565331;25;20020;-67
2024/04/19 14:58:49;;;;;;;2.40;0.95;;;;;;;;;;5563059;25;20029;-67
2024/04/19 15:01:18;;;;;;;2.30;1.00;;;;;;;;;;5569803;25;20028;-68
2024/04/19 15:03:47;;;;;;;2.30;0.90;;;;;;;;;;5551846;25;20041;-67
2024/04/19 15:06:16;;;;;;;;;;;;;;;;;;5525818;26;20029;-67
2024/04/19 15:08:45;;;;;;;4.00;1.25;;;;;;;;;;5525392;26;19950;-67
2024/04/19 15:11:16;;;;;;;3.67;1.40;;;;;;;;;;5529614;25;20504;-67
2024/04/19 15:13:45;;;;;;;3.28;1.55;;;;;;;;;;5539172;25;20029;-68
2024/04/19 15:16:14;;;;;;;5.33;1.80;;;;;;;;;;5525019;26;20028;-68
2024/04/19 15:18:43;;;;;;;3.13;1.40;;;;;;;;;;5525386;26;20025;-68
2024/04/19 15:21:11;;;;;;;5.03;1.30;;;;;;;;;;5538817;25;20036;-69
2024/04/19 15:23:41;;;;;;;4.03;1.52;;;;;;;;;;5535464;25;20025;-69
2024/04/19 15:26:09;;;;;;;4.55;1.50;;;;;;;;;;5562356;25;20028;-68
2024/04/19 15:28:41;;;;;;;4.23;1.63;;;;;;;;;;5553692;25;20025;-68
2024/04/19 15:31:10;;;;;;;4.57;1.77;;;;;;;;;;5521854;25;20032;-68
2024/04/19 15:33:39;;;;;;;7.23;2.10;;;;;;;;;;5543128;25;20024;-68
2024/04/19 15:36:08;;;;;;;4.23;1.60;;;;;;;;;;5527964;25;20037;-68
2024/04/19 15:38:41;;;;;;;6.78;2.08;;;;;;;;;;5539742;25;20024;-68
2024/04/19 15:41:10;;;;;;;3.65;2.03;;;;;;;;;;5532775;25;20028;-68
2024/04/19 15:43:41;;;;;;;3.58;1.73;;;;;;;;;;5549240;25;20036;-68
2024/04/19 15:46:10;;;;;;;8.25;2.50;;;;;;;;;;5561133;25;20021;-69
2024/04/19 15:48:39;;;;;;;4.88;2.08;;;;;;;;;;5539112;25;20022;-69
2024/04/19 15:51:08;;;;;;;5.53;1.70;;;;;;;;;;5543633;25;20237;-69
2024/04/19 15:53:36;;;;;;;5.00;1.30;;;;;;;;;;5528471;25;20057;-69
2024/04/19 15:56:05;;;;;;;5.30;2.03;;;;;;;;;;5542724;25;20491;-70
2024/04/19 15:58:34;;;;;;;8.00;1.60;;;;;;;;;;5558377;25;20479;-69
2024/04/19 16:01:10;;;;;;;5.50;1.77;;;;;;;;;;5535964;25;20037;-69
2024/04/19 16:03:39;;;;;;;7.63;1.70;;;;;;;;;;5548232;25;20040;-69
2024/04/19 16:06:08;;;;;;;6.45;2.00;;;;;;;;;;5535295;25;20033;-69
2024/04/19 16:08:37;;;;;;;7.85;2.17;;;;;;;;;;5546317;25;20044;-68
2024/04/19 16:11:06;;;;;;;6.00;2.17;;;;;;;;;;5542511;25;20377;-69
2024/04/19 16:13:35;;;;;;;7.88;2.38;;;;;;;;;;5560358;25;20033;-68
2024/04/19 16:16:04;;;;;;;6.30;2.25;;;;;;;;;;5546382;25;20032;-68
2024/04/19 16:18:36;;;;;;;8.27;2.20;;;;;;;;;;5545554;25;20033;-68
2024/04/19 16:21:04;;;;;;;6.85;1.77;;;;;;;;;;5528590;26;20029;-68
2024/04/19 16:23:33;;;;;;;5.57;1.57;;;;;;;;;;5544998;25;20034;-68
2024/04/19 16:26:03;;;;;;;6.28;1.95;;;;;;;;;;5541471;25;20028;-67
2024/04/19 16:28:32;;;;;;;5.80;1.55;;;;;;;;;;5549032;25;20029;-67
2024/04/19 16:31:00;;;;;;;5.55;1.40;;;;;;;;;;5534303;25;20030;-67
2024/04/19 16:33:29;;;;;;;4.40;1.33;;;;;;;;;;5536141;25;20032;-67
2024/04/19 16:36:01;;;;;;;4.20;1.70;;;;;;;;;;5544941;25;20029;-66